sensor_id;sensor_type;location;lat;lon;timestamp;pressure;altitude;pressure_sealevel;temperature;humidity
48527;BME280;34317;51.660;5.824;2022-09-09T00:00:24;100717.75;;;18.52;59.63
48527;BME280;34317;51.660;5.824;2022-09-09T00:03:11;100715.31;;;18.48;59.50
48527;BME280;34317;51.660;5.824;2022-09-09T00:08:18;100707.88;;;18.41;59.68
48527;BME280;34317;51.660;5.824;2022-09-09T00:10:52;100707.28;;;18.37;59.77
48527;BME280;34317;51.660;5.824;2022-09-09T00:13:34;100711.19;;;18.33;59.67
48527;BME280;34317;51.660;5.824;2022-09-09T00:16:21;100715.09;;;18.29;59.95
48527;BME280;34317;51.660;5.824;2022-09-09T00:19:20;100704.59;;;18.26;59.82
48527;BME280;34317;51.660;5.824;2022-09-09T00:24:28;100706.78;;;18.21;59.92
48527;BME280;34317;51.660;5.824;2022-09-09T00:27:04;100702.41;;;18.20;59.97
48527;BME280;34317;51.660;5.824;2022-09-09T00:30:13;100701.69;;;18.18;59.93
48527;BME280;34317;51.660;5.824;2022-09-09T00:32:41;100701.91;;;18.15;59.84
48527;BME280;34317;51.660;5.824;2022-09-09T00:37:47;100705.09;;;18.08;60.11
48527;BME280;34317;51.660;5.824;2022-09-09T00:40:29;100701.53;;;18.08;60.06
48527;BME280;34317;51.660;5.824;2022-09-09T00:43:24;100701.69;;;18.06;60.14
48527;BME280;34317;51.660;5.824;2022-09-09T00:48:50;100695.09;;;17.99;60.05
48527;BME280;34317;51.660;5.824;2022-09-09T00:51:29;100697.06;;;17.97;60.09
48527;BME280;34317;51.660;5.824;2022-09-09T00:57:36;100693.13;;;17.90;60.00
48527;BME280;34317;51.660;5.824;2022-09-09T01:19:17;100676.50;;;17.62;60.35
48527;BME280;34317;51.660;5.824;2022-09-09T01:21:58;100671.25;;;17.61;60.61
48527;BME280;34317;51.660;5.824;2022-09-09T01:24:38;100668.47;;;17.62;60.60
48527;BME280;34317;51.660;5.824;2022-09-09T01:27:16;100673.81;;;17.62;60.76
48527;BME280;34317;51.660;5.824;2022-09-09T01:29:45;100661.16;;;17.64;60.88
48527;BME280;34317;51.660;5.824;2022-09-09T01:32:39;100678.94;;;17.65;60.90
48527;BME280;34317;51.660;5.824;2022-09-09T01:35:11;100676.16;;;17.67;60.97
48527;BME280;34317;51.660;5.824;2022-09-09T01:37:41;100678.69;;;17.68;60.71
48527;BME280;34317;51.660;5.824;2022-09-09T01:40:09;100676.75;;;17.70;60.98
48527;BME280;34317;51.660;5.824;2022-09-09T01:42:37;100673.09;;;17.71;61.11
48527;BME280;34317;51.660;5.824;2022-09-09T01:45:05;100665.81;;;17.74;61.16
48527;BME280;34317;51.660;5.824;2022-09-09T01:47:32;100674.56;;;17.76;61.08
48527;BME280;34317;51.660;5.824;2022-09-09T01:50:31;100670.94;;;17.77;61.24
48527;BME280;34317;51.660;5.824;2022-09-09T01:52:59;100677.97;;;17.78;61.12
48527;BME280;34317;51.660;5.824;2022-09-09T01:55:39;100661.91;;;17.78;60.96
48527;BME280;34317;51.660;5.824;2022-09-09T01:58:38;100667.25;;;17.78;61.07
48527;BME280;34317;51.660;5.824;2022-09-09T02:01:17;100672.63;;;17.78;61.28
48527;BME280;34317;51.660;5.824;2022-09-09T02:03:56;100667.25;;;17.78;61.24
48527;BME280;34317;51.660;5.824;2022-09-09T02:06:34;100660.22;;;17.77;61.19
48527;BME280;34317;51.660;5.824;2022-09-09T02:09:19;100657.53;;;17.77;61.19
48527;BME280;34317;51.660;5.824;2022-09-09T02:11:57;100662.78;;;17.78;61.25
48527;BME280;34317;51.660;5.824;2022-09-09T02:14:41;100661.91;;;17.78;61.46
48527;BME280;34317;51.660;5.824;2022-09-09T02:17:11;100656.53;;;17.78;61.37
48527;BME280;34317;51.660;5.824;2022-09-09T02:20:00;100652.06;;;17.78;61.44
48527;BME280;34317;51.660;5.824;2022-09-09T02:22:43;100653.75;;;17.79;61.31
48527;BME280;34317;51.660;5.824;2022-09-09T02:25:15;100649.22;;;17.80;61.42
48527;BME280;34317;51.660;5.824;2022-09-09T02:27:45;100653.63;;;17.81;61.54
48527;BME280;34317;51.660;5.824;2022-09-09T02:30:14;100652.78;;;17.80;61.42
48527;BME280;34317;51.660;5.824;2022-09-09T02:32:50;100649.22;;;17.80;61.36
48527;BME280;34317;51.660;5.824;2022-09-09T02:35:22;100647.56;;;17.79;61.46
48527;BME280;34317;51.660;5.824;2022-09-09T02:37:53;100645.81;;;17.78;61.37
48527;BME280;34317;51.660;5.824;2022-09-09T02:40:22;100646.09;;;17.75;61.46
48527;BME280;34317;51.660;5.824;2022-09-09T02:42:57;100649.72;;;17.74;61.33
48527;BME280;34317;51.660;5.824;2022-09-09T02:45:31;100640.00;;;17.73;61.45
48527;BME280;34317;51.660;5.824;2022-09-09T02:48:31;100646.31;;;17.71;61.51
48527;BME280;34317;51.660;5.824;2022-09-09T02:51:10;100646.31;;;17.71;61.60
48527;BME280;34317;51.660;5.824;2022-09-09T02:56:25;100652.63;;;17.70;61.58
48527;BME280;34317;51.660;5.824;2022-09-09T02:58:55;100657.88;;;17.72;61.57
48527;BME280;34317;51.660;5.824;2022-09-09T03:01:23;100652.53;;;17.72;61.62
48527;BME280;34317;51.660;5.824;2022-09-09T03:03:50;100655.09;;;17.74;61.61
48527;BME280;34317;51.660;5.824;2022-09-09T03:06:17;100655.09;;;17.74;61.79
48527;BME280;34317;51.660;5.824;2022-09-09T03:08:50;100653.41;;;17.73;61.59
48527;BME280;34317;51.660;5.824;2022-09-09T03:11:22;100658.75;;;17.73;61.76
48527;BME280;34317;51.660;5.824;2022-09-09T03:13:49;100653.41;;;17.73;61.82
48527;BME280;34317;51.660;5.824;2022-09-09T03:16:17;100650.72;;;17.73;61.76
48527;BME280;34317;51.660;5.824;2022-09-09T03:18:47;100664.13;;;17.73;61.71
48527;BME280;34317;51.660;5.824;2022-09-09T03:21:15;100653.41;;;17.73;61.91
48527;BME280;34317;51.660;5.824;2022-09-09T03:23:43;100652.41;;;17.74;61.98
48527;BME280;34317;51.660;5.824;2022-09-09T03:26:12;100654.13;;;17.75;62.00
48527;BME280;34317;51.660;5.824;2022-09-09T03:28:44;100654.84;;;17.77;62.01
48527;BME280;34317;51.660;5.824;2022-09-09T03:31:15;100658.25;;;17.79;62.09
48527;BME280;34317;51.660;5.824;2022-09-09T03:33:42;100654.59;;;17.80;62.10
48527;BME280;34317;51.660;5.824;2022-09-09T03:36:12;100652.66;;;17.82;62.06
48527;BME280;34317;51.660;5.824;2022-09-09T03:38:39;100661.44;;;17.84;61.97
48527;BME280;34317;51.660;5.824;2022-09-09T03:41:07;100662.31;;;17.84;62.16
48527;BME280;34317;51.660;5.824;2022-09-09T03:43:35;100663.16;;;17.85;62.21
48527;BME280;34317;51.660;5.824;2022-09-09T03:46:03;100666.56;;;17.87;62.47
48527;BME280;34317;51.660;5.824;2022-09-09T03:48:31;100669.97;;;17.89;62.31
48527;BME280;34317;51.660;5.824;2022-09-09T03:50:59;100662.66;;;17.91;62.46
48527;BME280;34317;51.660;5.824;2022-09-09T03:53:29;100668.66;;;17.95;62.42
48527;BME280;34317;51.660;5.824;2022-09-09T03:55:57;100667.56;;;17.97;62.34
48527;BME280;34317;51.660;5.824;2022-09-09T03:58:27;100668.19;;;18.01;62.34
48527;BME280;34317;51.660;5.824;2022-09-09T04:01:06;100658.31;;;18.01;62.62
48527;BME280;34317;51.660;5.824;2022-09-09T04:03:36;100663.41;;;18.04;62.50
48527;BME280;34317;51.660;5.824;2022-09-09T04:06:04;100666.84;;;18.06;62.47
48527;BME280;34317;51.660;5.824;2022-09-09T04:08:33;100665.84;;;18.07;62.51
48527;BME280;34317;51.660;5.824;2022-09-09T04:11:02;100662.94;;;18.11;62.48
48527;BME280;34317;51.660;5.824;2022-09-09T04:13:34;100666.34;;;18.13;62.52
48527;BME280;34317;51.660;5.824;2022-09-09T04:16:03;100655.63;;;18.13;62.57
48527;BME280;34317;51.660;5.824;2022-09-09T04:18:33;100654.50;;;18.15;62.64
48527;BME280;34317;51.660;5.824;2022-09-09T04:21:01;100654.41;;;18.17;62.71
48527;BME280;34317;51.660;5.824;2022-09-09T04:23:32;100643.44;;;18.20;62.70
48527;BME280;34317;51.660;5.824;2022-09-09T04:26:02;100642.44;;;18.21;62.83
48527;BME280;34317;51.660;5.824;2022-09-09T04:28:33;100641.50;;;18.22;62.50
48527;BME280;34317;51.660;5.824;2022-09-09T04:31:09;100640.50;;;18.23;63.00
48527;BME280;34317;51.660;5.824;2022-09-09T04:33:39;100643.91;;;18.25;62.76
48527;BME280;34317;51.660;5.824;2022-09-09T04:36:08;100645.38;;;18.29;62.96
48527;BME280;34317;51.660;5.824;2022-09-09T04:38:36;100642.44;;;18.32;62.99
48527;BME280;34317;51.660;5.824;2022-09-09T04:41:04;100630.75;;;18.33;62.98
48527;BME280;34317;51.660;5.824;2022-09-09T04:43:34;100634.16;;;18.35;62.83
48527;BME280;34317;51.660;5.824;2022-09-09T04:46:04;100635.84;;;18.36;62.91
48527;BME280;34317;51.660;5.824;2022-09-09T04:48:32;100639.41;;;18.37;62.96
48527;BME280;34317;51.660;5.824;2022-09-09T04:51:03;100635.59;;;18.39;63.12
48527;BME280;34317;51.660;5.824;2022-09-09T04:53:32;100633.66;;;18.41;62.85
48527;BME280;34317;51.660;5.824;2022-09-09T04:56:04;100631.69;;;18.43;62.99
48527;BME280;34317;51.660;5.824;2022-09-09T04:58:36;100626.22;;;18.45;63.14
48527;BME280;34317;51.660;5.824;2022-09-09T05:01:12;100624.25;;;18.47;63.01
48527;BME280;34317;51.660;5.824;2022-09-09T05:03:43;100624.97;;;18.49;63.00
48527;BME280;34317;51.660;5.824;2022-09-09T05:06:16;100613.41;;;18.48;63.14
48527;BME280;34317;51.660;5.824;2022-09-09T05:08:45;100622.16;;;18.51;63.04
48527;BME280;34317;51.660;5.824;2022-09-09T05:11:24;100622.16;;;18.51;63.07
48527;BME280;34317;51.660;5.824;2022-09-09T05:13:54;100625.56;;;18.53;62.91
48527;BME280;34317;51.660;5.824;2022-09-09T05:16:21;100628.13;;;18.54;62.82
48527;BME280;34317;51.660;5.824;2022-09-09T05:18:50;100626.19;;;18.56;62.99
48527;BME280;34317;51.660;5.824;2022-09-09T05:21:22;100627.03;;;18.57;63.02
48527;BME280;34317;51.660;5.824;2022-09-09T05:23:49;100627.75;;;18.59;62.93
48527;BME280;34317;51.660;5.824;2022-09-09T05:26:21;100626.78;;;18.60;62.92
48527;BME280;34317;51.660;5.824;2022-09-09T05:28:50;100629.34;;;18.61;63.02
48527;BME280;34317;51.660;5.824;2022-09-09T05:31:18;100623.09;;;18.61;62.99
48527;BME280;34317;51.660;5.824;2022-09-09T05:33:50;100619.47;;;18.62;62.92
48527;BME280;34317;51.660;5.824;2022-09-09T05:36:19;100628.22;;;18.64;62.94
48527;BME280;34317;51.660;5.824;2022-09-09T05:38:50;100623.72;;;18.64;62.95
48527;BME280;34317;51.660;5.824;2022-09-09T05:41:19;100620.91;;;18.66;63.13
48527;BME280;34317;51.660;5.824;2022-09-09T05:43:47;100626.03;;;18.69;63.06
48527;BME280;34317;51.660;5.824;2022-09-09T05:46:18;100626.88;;;18.70;63.04
48527;BME280;34317;51.660;5.824;2022-09-09T05:48:48;100615.91;;;18.73;62.96
48527;BME280;34317;51.660;5.824;2022-09-09T05:51:23;100618.47;;;18.74;63.07
48527;BME280;34317;51.660;5.824;2022-09-09T05:53:51;100623.53;;;18.77;63.08
48527;BME280;34317;51.660;5.824;2022-09-09T05:56:21;100629.75;;;18.78;62.94
48527;BME280;34317;51.660;5.824;2022-09-09T05:58:49;100626.94;;;18.79;63.23
48527;BME280;34317;51.660;5.824;2022-09-09T06:01:20;100630.38;;;18.81;62.75
48527;BME280;34317;51.660;5.824;2022-09-09T06:03:49;100623.06;;;18.83;62.91
48527;BME280;34317;51.660;5.824;2022-09-09T06:06:21;100635.50;;;18.84;62.84
48527;BME280;34317;51.660;5.824;2022-09-09T06:08:51;100627.47;;;18.84;62.81
48527;BME280;34317;51.660;5.824;2022-09-09T06:11:24;100631.00;;;18.85;62.97
48527;BME280;34317;51.660;5.824;2022-09-09T06:13:53;100638.91;;;18.86;62.88
48527;BME280;34317;51.660;5.824;2022-09-09T06:16:23;100641.47;;;18.88;62.94
48527;BME280;34317;51.660;5.824;2022-09-09T06:18:51;100633.31;;;18.90;62.50
48527;BME280;34317;51.660;5.824;2022-09-09T06:21:21;100627.94;;;18.90;62.89
48527;BME280;34317;51.660;5.824;2022-09-09T06:23:49;100646.44;;;18.93;63.02
48527;BME280;34317;51.660;5.824;2022-09-09T06:26:25;100639.88;;;18.97;63.28
48527;BME280;34317;51.660;5.824;2022-09-09T06:28:54;100639.34;;;19.03;62.87
48527;BME280;34317;51.660;5.824;2022-09-09T06:31:23;100647.88;;;19.08;63.05
48527;BME280;34317;51.660;5.824;2022-09-09T06:33:58;100638.56;;;19.12;62.97
48527;BME280;34317;51.660;5.824;2022-09-09T06:36:28;100641.44;;;19.20;63.16
48527;BME280;34317;51.660;5.824;2022-09-09T06:38:56;100639.22;;;19.25;63.13
48527;BME280;34317;51.660;5.824;2022-09-09T06:41:25;100626.00;;;19.34;63.25
48527;BME280;34317;51.660;5.824;2022-09-09T06:43:56;100628.03;;;19.41;63.39
48527;BME280;34317;51.660;5.824;2022-09-09T06:46:32;100629.78;;;19.52;63.11
48527;BME280;34317;51.660;5.824;2022-09-09T06:49:00;100630.69;;;19.62;63.01
48527;BME280;34317;51.660;5.824;2022-09-09T06:51:34;100635.25;;;19.72;62.92
48527;BME280;34317;51.660;5.824;2022-09-09T06:54:03;100623.75;;;19.81;62.76
48527;BME280;34317;51.660;5.824;2022-09-09T06:56:36;100631.72;;;19.92;62.65
48527;BME280;34317;51.660;5.824;2022-09-09T06:59:09;100630.91;;;20.01;62.50
48527;BME280;34317;51.660;5.824;2022-09-09T07:01:42;100636.75;;;20.07;62.09
48527;BME280;34317;51.660;5.824;2022-09-09T07:04:13;100637.44;;;20.09;61.78
48527;BME280;34317;51.660;5.824;2022-09-09T07:06:44;100635.72;;;20.08;61.67
48527;BME280;34317;51.660;5.824;2022-09-09T07:09:17;100633.50;;;20.13;61.72
48527;BME280;34317;51.660;5.824;2022-09-09T07:11:49;100638.31;;;20.19;61.91
48527;BME280;34317;51.660;5.824;2022-09-09T07:14:19;100630.44;;;20.27;61.59
48527;BME280;34317;51.660;5.824;2022-09-09T07:16:50;100626.47;;;20.31;61.25
48527;BME280;34317;51.660;5.824;2022-09-09T07:19:20;100622.78;;;20.32;61.08
48527;BME280;34317;51.660;5.824;2022-09-09T07:21:51;100625.22;;;20.35;61.17
48527;BME280;34317;51.660;5.824;2022-09-09T07:24:20;100632.72;;;20.41;61.26
48527;BME280;34317;51.660;5.824;2022-09-09T07:26:48;100627.22;;;20.53;61.38
48527;BME280;34317;51.660;5.824;2022-09-09T07:29:17;100620.06;;;20.63;61.21
48527;BME280;34317;51.660;5.824;2022-09-09T07:31:47;100624.31;;;20.75;61.33
48527;BME280;34317;51.660;5.824;2022-09-09T07:34:20;100630.84;;;20.83;60.74
48527;BME280;34317;51.660;5.824;2022-09-09T07:36:51;100625.44;;;20.83;60.49
48527;BME280;34317;51.660;5.824;2022-09-09T07:39:19;100632.53;;;20.84;60.20
48527;BME280;34317;51.660;5.824;2022-09-09T07:41:50;100630.84;;;20.83;60.20
48527;BME280;34317;51.660;5.824;2022-09-09T07:44:23;100638.91;;;20.83;60.10
48527;BME280;34317;51.660;5.824;2022-09-09T07:46:59;100629.16;;;20.82;59.70
48527;BME280;34317;51.660;5.824;2022-09-09T07:49:33;100634.53;;;20.82;59.82
48527;BME280;34317;51.660;5.824;2022-09-09T07:52:03;100638.19;;;20.80;59.67
48527;BME280;34317;51.660;5.824;2022-09-09T07:54:31;100636.22;;;20.83;59.74
48527;BME280;34317;51.660;5.824;2022-09-09T07:57:02;100632.25;;;20.87;59.85
48527;BME280;34317;51.660;5.824;2022-09-09T07:59:32;100631.41;;;20.96;59.83
48527;BME280;34317;51.660;5.824;2022-09-09T08:02:00;100630.28;;;21.08;59.92
48527;BME280;34317;51.660;5.824;2022-09-09T08:04:31;100627.44;;;21.19;59.88
48527;BME280;34317;51.660;5.824;2022-09-09T08:06:59;100636.75;;;21.35;60.04
48527;BME280;34317;51.660;5.824;2022-09-09T08:09:30;100643.00;;;21.45;59.47
48527;BME280;34317;51.660;5.824;2022-09-09T08:12:14;100641.44;;;21.52;59.07
48527;BME280;34317;51.660;5.824;2022-09-09T08:14:42;100641.84;;;21.57;58.51
48527;BME280;34317;51.660;5.824;2022-09-09T08:17:09;100636.47;;;21.57;58.21
48527;BME280;34317;51.660;5.824;2022-09-09T08:19:37;100643.84;;;21.55;57.98
48527;BME280;34317;51.660;5.824;2022-09-09T08:22:10;100649.53;;;21.52;57.85
48527;BME280;34317;51.660;5.824;2022-09-09T08:24:39;100654.22;;;21.50;57.89
48527;BME280;34317;51.660;5.824;2022-09-09T08:27:07;100653.22;;;21.51;57.99
48527;BME280;34317;51.660;5.824;2022-09-09T08:29:34;100659.59;;;21.50;57.86
48527;BME280;34317;51.660;5.824;2022-09-09T08:32:02;100663.69;;;21.54;57.73
48527;BME280;34317;51.660;5.824;2022-09-09T08:34:30;100665.09;;;21.58;57.59
48527;BME280;34317;51.660;5.824;2022-09-09T08:37:02;100654.03;;;21.62;57.57
48527;BME280;34317;51.660;5.824;2022-09-09T08:39:34;100658.28;;;21.64;57.47
48527;BME280;34317;51.660;5.824;2022-09-09T08:42:12;100657.31;;;21.65;57.20
48527;BME280;34317;51.660;5.824;2022-09-09T08:44:55;100660.84;;;21.66;57.24
48527;BME280;34317;51.660;5.824;2022-09-09T08:48:08;100658.84;;;21.68;57.39
48527;BME280;34317;51.660;5.824;2022-09-09T08:50:39;100656.56;;;21.73;57.48
48527;BME280;34317;51.660;5.824;2022-09-09T08:53:23;100657.69;;;21.80;57.27
48527;BME280;34317;51.660;5.824;2022-09-09T08:55:56;100660.50;;;21.88;56.78
48527;BME280;34317;51.660;5.824;2022-09-09T08:58:34;100658.22;;;21.93;56.63
48527;BME280;34317;51.660;5.824;2022-09-09T09:01:29;100666.00;;;21.96;56.23
48527;BME280;34317;51.660;5.824;2022-09-09T09:04:33;100679.50;;;21.96;56.26
48527;BME280;34317;51.660;5.824;2022-09-09T09:07:08;100670.41;;;21.97;56.41
48527;BME280;34317;51.660;5.824;2022-09-09T09:10:05;100676.47;;;22.00;56.26
48527;BME280;34317;51.660;5.824;2022-09-09T09:12:57;100678.91;;;22.03;55.91
48527;BME280;34317;51.660;5.824;2022-09-09T09:15:30;100674.34;;;22.03;55.85
48527;BME280;34317;51.660;5.824;2022-09-09T09:17:58;100674.91;;;22.07;55.84
48527;BME280;34317;51.660;5.824;2022-09-09T09:26:35;100669.44;;;22.26;55.83
48527;BME280;34317;51.660;5.824;2022-09-09T09:29:19;100669.72;;;22.33;55.71
48527;BME280;34317;51.660;5.824;2022-09-09T09:32:03;100668.56;;;22.35;55.48
48527;BME280;34317;51.660;5.824;2022-09-09T09:34:40;100680.03;;;22.38;55.00
48527;BME280;34317;51.660;5.824;2022-09-09T09:37:17;100684.03;;;22.33;54.79
48527;BME280;34317;51.660;5.824;2022-09-09T09:39:50;100676.25;;;22.30;54.94
48527;BME280;34317;51.660;5.824;2022-09-09T09:42:33;100680.25;;;22.26;54.74
48527;BME280;34317;51.660;5.824;2022-09-09T09:48:05;100675.00;;;22.15;54.39
48527;BME280;34317;51.660;5.824;2022-09-09T09:50:47;100675.31;;;22.12;54.75
48527;BME280;34317;51.660;5.824;2022-09-09T09:58:31;100677.69;;;22.15;54.50
48527;BME280;34317;51.660;5.824;2022-09-09T10:01:01;100684.81;;;22.16;54.55
48527;BME280;34317;51.660;5.824;2022-09-09T10:03:32;100677.69;;;22.15;54.47
48527;BME280;34317;51.660;5.824;2022-09-09T10:06:01;100680.41;;;22.15;54.43
48527;BME280;34317;51.660;5.824;2022-09-09T10:08:45;100683.09;;;22.15;54.55
48527;BME280;34317;51.660;5.824;2022-09-09T10:12:08;100687.66;;;22.14;54.38
48527;BME280;34317;51.660;5.824;2022-09-09T10:14:21;100671.78;;;22.11;54.25
48527;BME280;34317;51.660;5.824;2022-09-09T10:20:18;100673.75;;;22.09;54.25
48527;BME280;34317;51.660;5.824;2022-09-09T10:22:51;100674.63;;;22.10;54.43
48527;BME280;34317;51.660;5.824;2022-09-09T10:25:21;100672.63;;;22.12;54.51
48527;BME280;34317;51.660;5.824;2022-09-09T10:28:13;100672.00;;;22.18;54.39
48527;BME280;34317;51.660;5.824;2022-09-09T10:31:17;100674.28;;;22.23;54.61
48527;BME280;34317;51.660;5.824;2022-09-09T10:34:06;100682.78;;;22.28;54.30
48527;BME280;34317;51.660;5.824;2022-09-09T10:36:46;100690.44;;;22.32;54.15
48527;BME280;34317;51.660;5.824;2022-09-09T10:39:29;100681.66;;;22.30;54.20
48527;BME280;34317;51.660;5.824;2022-09-09T10:42:06;100678.25;;;22.28;54.15
48527;BME280;34317;51.660;5.824;2022-09-09T10:47:53;100679.97;;;22.20;54.26
48527;BME280;34317;51.660;5.824;2022-09-09T10:50:45;100683.09;;;22.15;54.22
48527;BME280;34317;51.660;5.824;2022-09-09T10:56:03;100687.41;;;22.08;53.88
48527;BME280;34317;51.660;5.824;2022-09-09T10:58:38;100687.69;;;22.05;54.15
48527;BME280;34317;51.660;5.824;2022-09-09T11:01:31;100687.97;;;22.02;54.61
48527;BME280;34317;51.660;5.824;2022-09-09T11:04:13;100684.72;;;21.98;54.66
48527;BME280;34317;51.660;5.824;2022-09-09T11:06:47;100686.16;;;21.92;54.77
48527;BME280;34317;51.660;5.824;2022-09-09T11:09:19;100693.28;;;21.84;55.12
48527;BME280;34317;51.660;5.824;2022-09-09T11:11:53;100696.03;;;21.74;55.31
48527;BME280;34317;51.660;5.824;2022-09-09T11:14:43;100707.66;;;21.65;55.44
48527;BME280;34317;51.660;5.824;2022-09-09T11:17:26;100701.44;;;21.54;55.71
48527;BME280;34317;51.660;5.824;2022-09-09T11:19:56;100716.78;;;21.44;55.52
48527;BME280;34317;51.660;5.824;2022-09-09T11:22:34;100711.06;;;21.37;56.05
48527;BME280;34317;51.660;5.824;2022-09-09T11:25:07;100700.00;;;21.31;56.52
48527;BME280;34317;51.660;5.824;2022-09-09T11:28:04;100698.88;;;21.24;56.70
48527;BME280;34317;51.660;5.824;2022-09-09T11:33:47;100695.31;;;21.13;57.35
48527;BME280;34317;51.660;5.824;2022-09-09T11:41:51;100700.00;;;21.11;57.96
48527;BME280;34317;51.660;5.824;2022-09-09T11:44:26;100693.75;;;21.11;57.88
48527;BME280;34317;51.660;5.824;2022-09-09T11:46:54;100693.19;;;21.07;58.15
48527;BME280;34317;51.660;5.824;2022-09-09T11:49:40;100698.59;;;21.07;58.45
48527;BME280;34317;51.660;5.824;2022-09-09T11:52:35;100692.94;;;21.10;58.83
48527;BME280;34317;51.660;5.824;2022-09-09T11:55:11;100693.19;;;21.17;59.28
48527;BME280;34317;51.660;5.824;2022-09-09T11:57:39;100698.31;;;21.30;59.52
48527;BME280;34317;51.660;5.824;2022-09-09T12:00:06;100685.38;;;21.43;59.61
48527;BME280;34317;51.660;5.824;2022-09-09T12:02:48;100681.28;;;21.58;59.61
48527;BME280;34317;51.660;5.824;2022-09-09T12:05:17;100676.97;;;21.75;59.58
48527;BME280;34317;51.660;5.824;2022-09-09T12:07:57;100682.06;;;21.88;59.30
48527;BME280;34317;51.660;5.824;2022-09-09T12:10:33;100677.50;;;21.99;59.06
48527;BME280;34317;51.660;5.824;2022-09-09T12:13:19;100682.28;;;22.05;58.51
48527;BME280;34317;51.660;5.824;2022-09-09T12:15:50;100682.84;;;22.08;58.38
48527;BME280;34317;51.660;5.824;2022-09-09T12:21:33;100690.47;;;22.13;58.11
48527;BME280;34317;51.660;5.824;2022-09-09T12:24:11;100684.25;;;22.12;57.99
48527;BME280;34317;51.660;5.824;2022-09-09T12:40:00;100672.09;;;21.99;57.87
48527;BME280;34317;51.660;5.824;2022-09-09T12:42:30;100666.41;;;22.02;57.96
48527;BME280;34317;51.660;5.824;2022-09-09T12:45:00;100668.53;;;22.08;58.40
48527;BME280;34317;51.660;5.824;2022-09-09T12:50:23;100669.16;;;22.29;58.48
48527;BME280;34317;51.660;5.824;2022-09-09T12:53:01;100663.16;;;22.35;58.07
48527;BME280;34317;51.660;5.824;2022-09-09T12:55:32;100664.25;;;22.43;58.26
48527;BME280;34317;51.660;5.824;2022-09-09T12:58:03;100658.25;;;22.49;58.02
48527;BME280;34317;51.660;5.824;2022-09-09T13:00:33;100652.41;;;22.53;57.94
48527;BME280;34317;51.660;5.824;2022-09-09T13:03:14;100655.66;;;22.57;57.71
48527;BME280;34317;51.660;5.824;2022-09-09T13:05:42;100657.34;;;22.58;57.38
48527;BME280;34317;51.660;5.824;2022-09-09T13:08:11;100656.50;;;22.58;57.08
48527;BME280;34317;51.660;5.824;2022-09-09T13:10:39;100651.94;;;22.58;57.01
48527;BME280;34317;51.660;5.824;2022-09-09T13:13:37;100650.25;;;22.57;56.95
48527;BME280;34317;51.660;5.824;2022-09-09T13:16:07;100642.84;;;22.59;57.37
48527;BME280;34317;51.660;5.824;2022-09-09T13:18:45;100646.53;;;22.58;56.82
48527;BME280;34317;51.660;5.824;2022-09-09T13:21:13;100643.16;;;22.56;56.77
48527;BME280;34317;51.660;5.824;2022-09-09T13:23:41;100638.06;;;22.53;56.79
48527;BME280;34317;51.660;5.824;2022-09-09T13:26:26;100643.75;;;22.50;56.85
48527;BME280;34317;51.660;5.824;2022-09-09T13:28:54;100640.06;;;22.51;56.87
48527;BME280;34317;51.660;5.824;2022-09-09T13:31:33;100638.38;;;22.50;56.98
48527;BME280;34317;51.660;5.824;2022-09-09T13:34:11;100636.66;;;22.49;56.73
48527;BME280;34317;51.660;5.824;2022-09-09T13:36:38;100637.53;;;22.49;56.70
48527;BME280;34317;51.660;5.824;2022-09-09T13:39:15;100635.25;;;22.45;56.92
48527;BME280;34317;51.660;5.824;2022-09-09T13:41:46;100637.25;;;22.43;57.00
48527;BME280;34317;51.660;5.824;2022-09-09T13:44:24;100635.03;;;22.38;57.10
48527;BME280;34317;51.660;5.824;2022-09-09T13:49:36;100627.69;;;22.30;57.31
48527;BME280;34317;51.660;5.824;2022-09-09T13:52:14;100604.97;;;22.23;57.43
48527;BME280;34317;51.660;5.824;2022-09-09T13:54:42;100594.81;;;22.17;57.40
48527;BME280;34317;51.660;5.824;2022-09-09T13:57:22;100616.97;;;22.11;57.44
48527;BME280;34317;51.660;5.824;2022-09-09T13:59:51;100650.22;;;22.02;57.72
48527;BME280;34317;51.660;5.824;2022-09-09T14:02:33;100629.53;;;21.92;57.76
48527;BME280;34317;51.660;5.824;2022-09-09T14:05:01;100644.63;;;21.85;58.01
48527;BME280;34317;51.660;5.824;2022-09-09T14:07:28;100630.44;;;21.83;58.39
48527;BME280;34317;51.660;5.824;2022-09-09T14:09:55;100635.53;;;21.86;58.81
48527;BME280;34317;51.660;5.824;2022-09-09T14:12:23;100628.69;;;21.92;59.03
48527;BME280;34317;51.660;5.824;2022-09-09T14:14:50;100625.25;;;22.00;59.05
48527;BME280;34317;51.660;5.824;2022-09-09T14:17:17;100626.34;;;22.07;59.35
48527;BME280;34317;51.660;5.824;2022-09-09T14:19:44;100628.00;;;22.17;59.24
48527;BME280;34317;51.660;5.824;2022-09-09T14:22:12;100628.00;;;22.27;59.23
48527;BME280;34317;51.660;5.824;2022-09-09T14:24:39;100625.69;;;22.32;58.85
48527;BME280;34317;51.660;5.824;2022-09-09T14:27:07;100632.78;;;22.33;58.33
48527;BME280;34317;51.660;5.824;2022-09-09T14:29:35;100630.78;;;22.35;58.40
48527;BME280;34317;51.660;5.824;2022-09-09T14:32:02;100621.69;;;22.37;58.11
48527;BME280;34317;51.660;5.824;2022-09-09T14:34:29;100625.09;;;22.39;58.15
48527;BME280;34317;51.660;5.824;2022-09-09T14:36:59;100623.06;;;22.41;57.96
48527;BME280;34317;51.660;5.824;2022-09-09T14:39:26;100610.00;;;22.46;58.03
48527;BME280;34317;51.660;5.824;2022-09-09T14:41:53;100618.50;;;22.51;57.90
48527;BME280;34317;51.660;5.824;2022-09-09T14:44:20;100612.75;;;22.54;57.66
48527;BME280;34317;51.660;5.824;2022-09-09T14:46:48;100623.81;;;22.61;57.78
48527;BME280;34317;51.660;5.824;2022-09-09T14:49:16;100623.34;;;22.65;57.27
48527;BME280;34317;51.660;5.824;2022-09-09T14:51:44;100618.63;;;22.67;57.26
48527;BME280;34317;51.660;5.824;2022-09-09T14:54:11;100622.56;;;22.73;57.52